Time;durP1;ratioP1;P1;durP2;ratioP2;P2;SDS_P1;SDS_P2;PMS_P1;PMS_P2;Temp;Humidity;BMP_temperature;BMP_pressure;BME280_temperature;BME280_humidity;BME280_pressure;Samples;Min_cycle;Max_cycle;Signal;HPM_P1;HPM_P2
2022/07/13 00:01:14;;;;;;;5.88;2.90;;;20.70;99.90;;;;;;5009602;28;20034;-69
2022/07/13 00:03:40;;;;;;;5.68;2.78;;;20.70;99.90;;;;;;5004940;28;20026;-69
2022/07/13 00:06:07;;;;;;;6.28;2.58;;;20.70;99.90;;;;;;5010768;28;20042;-69
2022/07/13 00:08:33;;;;;;;8.00;2.92;;;20.70;99.90;;;;;;5011424;28;20110;-70
2022/07/13 00:10:59;;;;;;;6.70;2.80;;;20.70;99.90;;;;;;5007702;28;20076;-71
2022/07/13 00:13:24;;;;;;;5.68;2.42;;;20.60;99.90;;;;;;5009134;28;20034;-69
2022/07/13 00:15:50;;;;;;;5.03;2.70;;;20.60;99.90;;;;;;5012595;28;20655;-70
2022/07/13 00:18:16;;;;;;;4.63;2.50;;;20.60;99.90;;;;;;5009445;28;20066;-70
2022/07/13 00:20:42;;;;;;;4.57;2.30;;;20.60;99.90;;;;;;5013879;28;20515;-71
2022/07/13 00:23:08;;;;;;;4.80;2.28;;;20.60;99.90;;;;;;5007305;28;20022;-70
2022/07/13 00:25:34;;;;;;;4.55;2.45;;;20.60;99.90;;;;;;5026955;28;20035;-69
2022/07/13 00:27:59;;;;;;;6.13;2.40;;;20.50;99.90;;;;;;5007367;28;20160;-69
2022/07/13 00:30:25;;;;;;;5.70;2.30;;;20.50;99.90;;;;;;5013983;28;20132;-70
2022/07/13 00:32:51;;;;;;;7.68;2.47;;;20.50;99.90;;;;;;5022801;28;20025;-69
2022/07/13 00:35:16;;;;;;;5.28;2.40;;;20.50;99.90;;;;;;4999920;28;20412;-70
2022/07/13 00:37:43;;;;;;;4.93;2.10;;;20.50;99.90;;;;;;5010372;28;20057;-70
2022/07/13 00:40:09;;;;;;;4.47;2.30;;;20.50;99.90;;;;;;5004591;28;20128;-70
2022/07/13 00:42:35;;;;;;;10.18;2.42;;;20.50;99.90;;;;;;5017218;28;20039;-70
2022/07/13 00:45:01;;;;;;;4.43;2.20;;;20.40;99.90;;;;;;5020025;28;20116;-70
2022/07/13 00:47:32;;;;;;;6.88;2.55;;;20.30;99.90;;;;;;5016348;28;20034;-72
2022/07/13 00:50:01;;;;;;;5.03;2.40;;;20.30;99.90;;;;;;5020447;28;20490;-69
2022/07/13 00:52:27;;;;;;;6.47;2.88;;;20.30;99.90;;;;;;5015594;28;20038;-70
2022/07/13 00:54:54;;;;;;;3.97;2.10;;;20.20;99.90;;;;;;5017329;28;20495;-69
2022/07/13 00:57:21;;;;;;;6.10;2.78;;;20.10;99.90;;;;;;5012880;28;20045;-69
2022/07/13 00:59:47;;;;;;;4.70;2.33;;;20.10;99.90;;;;;;5022035;28;20124;-71
2022/07/13 01:02:12;;;;;;;6.97;2.58;;;20.10;99.90;;;;;;5013452;28;20582;-69
2022/07/13 01:04:38;;;;;;;6.97;2.60;;;20.00;99.90;;;;;;5020003;28;20033;-69
2022/07/13 01:07:05;;;;;;;6.47;2.70;;;19.90;99.90;;;;;;5015133;28;20044;-70
2022/07/13 01:09:32;;;;;;;5.00;2.67;;;19.90;99.90;;;;;;5024914;28;20056;-69
2022/07/13 01:11:58;;;;;;;4.68;2.45;;;19.90;99.90;;;;;;4997334;28;20029;-70
2022/07/13 01:14:24;;;;;;;5.15;2.65;;;19.90;99.90;;;;;;5009836;28;20033;-69
2022/07/13 01:16:51;;;;;;;4.88;2.20;;;19.80;99.90;;;;;;5013771;28;21439;-68
2022/07/13 01:19:18;;;;;;;5.95;2.90;;;19.80;99.90;;;;;;4993158;28;20038;-70
2022/07/13 01:21:46;;;;;;;7.50;2.75;;;19.80;99.90;;;;;;5023674;28;20043;-69
2022/07/13 01:24:12;;;;;;;5.25;2.70;;;19.80;99.90;;;;;;5004593;28;20144;-70
2022/07/13 01:26:38;;;;;;;5.45;2.75;;;19.80;99.90;;;;;;4992336;28;20030;-70
2022/07/13 01:29:05;;;;;;;5.57;2.65;;;19.90;99.90;;;;;;5004534;28;20030;-69
2022/07/13 01:31:38;;;;;;;4.63;2.60;;;19.90;99.90;;;;;;5012058;28;20483;-69
2022/07/13 01:34:05;;;;;;;4.63;2.42;;;19.90;99.90;;;;;;5010983;28;20026;-71
2022/07/13 01:36:32;;;;;;;6.63;2.60;;;19.90;99.90;;;;;;5006551;28;20079;-71
2022/07/13 01:38:58;;;;;;;4.20;2.47;;;19.90;99.90;;;;;;5008900;28;20149;-70
2022/07/13 01:41:25;;;;;;;6.35;2.95;;;19.90;99.90;;;;;;4992874;28;20889;-70
2022/07/13 01:43:51;;;;;;;5.28;2.72;;;19.90;99.90;;;;;;5004220;28;20117;-70
2022/07/13 01:46:17;;;;;;;5.43;2.67;;;19.90;99.90;;;;;;4991831;28;20033;-70
2022/07/13 01:48:43;;;;;;;4.50;2.85;;;19.90;99.90;;;;;;5011317;28;20029;-69
2022/07/13 01:51:08;;;;;;;6.07;2.85;;;19.80;99.90;;;;;;5022145;28;20037;-70
2022/07/13 01:53:34;;;;;;;5.07;2.83;;;19.80;99.90;;;;;;5015956;28;20033;-70
2022/07/13 01:56:00;;;;;;;6.28;2.67;;;19.70;99.90;;;;;;5008912;28;20088;-70
2022/07/13 01:58:26;;;;;;;6.22;2.90;;;19.70;99.90;;;;;;5010595;28;20044;-70
2022/07/13 02:00:52;;;;;;;5.40;2.65;;;19.70;99.90;;;;;;5011377;28;20029;-71
2022/07/13 02:03:19;;;;;;;4.00;2.53;;;19.70;99.90;;;;;;5012877;28;20033;-69
2022/07/13 02:05:45;;;;;;;6.07;3.08;;;19.60;99.90;;;;;;4994215;28;20045;-70
2022/07/13 02:08:11;;;;;;;4.18;3.00;;;19.60;99.90;;;;;;4989079;28;20746;-69
2022/07/13 02:10:37;;;;;;;5.45;2.72;;;19.50;99.90;;;;;;5008743;28;20048;-71
2022/07/13 02:13:08;;;;;;;6.43;3.10;;;19.50;99.90;;;;;;4989952;28;20095;-69
2022/07/13 02:15:34;;;;;;;4.50;2.80;;;19.50;99.90;;;;;;5009215;28;20054;-69
2022/07/13 02:18:00;;;;;;;6.82;3.30;;;19.40;99.90;;;;;;5009359;28;20038;-70
2022/07/13 02:20:26;;;;;;;5.68;2.65;;;19.40;99.90;;;;;;4991187;28;20041;-70
2022/07/13 02:22:52;;;;;;;6.93;3.30;;;19.40;99.90;;;;;;5007970;28;20034;-70
2022/07/13 02:25:18;;;;;;;5.43;3.35;;;19.30;99.90;;;;;;5013665;28;20034;-69
2022/07/13 02:27:44;;;;;;;6.03;3.30;;;19.40;99.90;;;;;;5006924;28;20466;-70
2022/07/13 02:30:11;;;;;;;5.63;3.30;;;19.30;99.90;;;;;;5007926;28;20042;-70
2022/07/13 02:32:37;;;;;;;6.45;3.40;;;19.30;99.90;;;;;;5020466;28;20042;-70
2022/07/13 02:35:03;;;;;;;6.47;3.33;;;19.30;99.90;;;;;;5007850;28;20053;-71
2022/07/13 02:37:29;;;;;;;6.80;3.35;;;19.20;99.90;;;;;;4988352;28;20037;-69
2022/07/13 02:39:56;;;;;;;4.72;2.90;;;19.30;99.90;;;;;;5012491;28;20438;-70
2022/07/13 02:42:22;;;;;;;5.55;3.13;;;19.20;99.90;;;;;;5008430;28;20029;-70
2022/07/13 02:44:49;;;;;;;4.57;2.78;;;19.20;99.90;;;;;;5005246;28;20040;-70
2022/07/13 02:47:15;;;;;;;5.45;3.00;;;19.30;99.90;;;;;;4999159;28;20033;-70
2022/07/13 02:49:41;;;;;;;4.72;2.90;;;19.30;99.90;;;;;;5006771;28;20140;-69
2022/07/13 02:52:07;;;;;;;7.03;3.60;;;19.30;99.90;;;;;;4988948;28;20041;-70
2022/07/13 02:54:33;;;;;;;6.45;3.40;;;19.30;99.90;;;;;;5012130;28;20163;-70
2022/07/13 02:56:58;;;;;;;6.28;3.40;;;19.40;99.90;;;;;;4996006;28;20146;-70
2022/07/13 02:59:24;;;;;;;5.97;3.65;;;19.40;99.90;;;;;;5002376;28;20045;-69
2022/07/13 03:01:50;;;;;;;6.03;3.65;;;19.30;99.90;;;;;;5008957;28;20032;-71
2022/07/13 03:04:16;;;;;;;7.38;3.67;;;19.40;99.90;;;;;;5011704;28;20365;-70
2022/07/13 03:06:42;;;;;;;5.30;3.47;;;19.40;99.90;;;;;;4997509;28;20361;-69
2022/07/13 03:09:08;;;;;;;5.70;3.63;;;19.30;99.90;;;;;;5008545;28;20060;-70
2022/07/13 03:11:34;;;;;;;7.47;3.70;;;19.30;99.90;;;;;;5021721;28;20061;-69
2022/07/13 03:14:01;;;;;;;5.40;3.72;;;19.30;99.90;;;;;;5005942;28;20456;-68
2022/07/13 03:16:27;;;;;;;5.90;3.90;;;19.20;99.90;;;;;;5009714;28;20030;-69
2022/07/13 03:18:53;;;;;;;6.05;3.47;;;19.20;99.90;;;;;;5005163;28;20052;-69
2022/07/13 03:21:19;;;;;;;6.45;3.90;;;19.20;99.90;;;;;;5008708;28;20042;-69
2022/07/13 03:23:45;;;;;;;5.80;3.72;;;19.20;99.90;;;;;;5006865;28;20034;-71
2022/07/13 03:26:11;;;;;;;5.43;3.60;;;19.10;99.90;;;;;;5020141;28;20049;-69
2022/07/13 03:28:37;;;;;;;4.93;3.15;;;19.10;99.90;;;;;;5000100;28;20033;-69
2022/07/13 03:31:02;;;;;;;5.28;3.80;;;19.10;99.90;;;;;;5011149;28;20469;-69
2022/07/13 03:33:28;;;;;;;6.60;4.07;;;19.10;99.90;;;;;;4989529;28;20030;-70
2022/07/13 03:35:54;;;;;;;5.55;4.00;;;19.10;99.90;;;;;;5007591;28;20095;-70
2022/07/13 03:38:20;;;;;;;6.53;4.28;;;19.10;99.90;;;;;;5009752;28;20037;-68
2022/07/13 03:40:47;;;;;;;7.45;4.30;;;19.10;99.90;;;;;;5006865;28;20124;-68
2022/07/13 03:43:13;;;;;;;8.55;4.32;;;19.00;99.90;;;;;;5006609;28;22004;-69
2022/07/13 03:45:39;;;;;;;5.93;4.05;;;19.00;99.90;;;;;;5006531;28;20036;-69
2022/07/13 03:48:05;;;;;;;10.35;4.38;;;19.00;99.90;;;;;;5007528;28;20080;-70
2022/07/13 03:50:31;;;;;;;6.22;4.10;;;18.90;99.90;;;;;;5010136;28;20029;-70
2022/07/13 03:52:57;;;;;;;9.68;4.32;;;18.90;99.90;;;;;;5012126;28;20112;-71
2022/07/13 03:55:23;;;;;;;5.57;3.70;;;18.90;99.90;;;;;;5004075;28;20033;-70
2022/07/13 03:57:48;;;;;;;5.80;3.83;;;18.90;99.90;;;;;;5019880;28;20033;-70
2022/07/13 04:00:14;;;;;;;5.90;4.18;;;18.80;99.90;;;;;;5003864;28;20049;-70
2022/07/13 04:02:40;;;;;;;7.93;4.70;;;18.80;99.90;;;;;;5021068;28;20042;-71
2022/07/13 04:05:06;;;;;;;6.40;4.28;;;18.80;99.90;;;;;;5007919;28;20044;-70
2022/07/13 04:07:32;;;;;;;9.00;4.43;;;18.70;99.90;;;;;;5007710;28;20607;-70
2022/07/13 04:09:57;;;;;;;6.63;3.90;;;18.70;99.90;;;;;;5012671;28;20033;-70
2022/07/13 04:12:23;;;;;;;6.70;4.35;;;18.70;99.90;;;;;;5007950;28;20057;-70
2022/07/13 04:14:50;;;;;;;6.60;4.20;;;18.60;99.90;;;;;;5015439;28;20044;-70
2022/07/13 04:17:15;;;;;;;7.47;4.03;;;18.70;99.90;;;;;;5008093;28;20080;-71
2022/07/13 04:19:41;;;;;;;5.72;3.58;;;18.70;99.90;;;;;;5008978;28;20510;-70
2022/07/13 04:22:07;;;;;;;5.43;3.63;;;18.70;99.90;;;;;;5007633;28;20060;-71
2022/07/13 04:24:32;;;;;;;7.15;4.20;;;18.70;99.90;;;;;;5020807;28;20030;-70
2022/07/13 04:26:58;;;;;;;6.85;3.95;;;18.70;99.90;;;;;;5023227;28;20037;-71
2022/07/13 04:29:24;;;;;;;5.57;3.80;;;18.70;99.90;;;;;;4994709;28;20404;-68
2022/07/13 04:31:50;;;;;;;6.82;3.80;;;18.70;99.90;;;;;;5017494;28;20042;-69
2022/07/13 04:34:17;;;;;;;6.63;4.20;;;18.70;99.90;;;;;;5024832;28;20148;-70
2022/07/13 04:36:43;;;;;;;6.65;4.20;;;18.70;99.90;;;;;;5008671;28;20123;-69
2022/07/13 04:39:09;;;;;;;5.47;4.20;;;18.70;99.90;;;;;;5008195;28;20460;-69
2022/07/13 04:41:35;;;;;;;8.07;4.47;;;18.70;99.90;;;;;;5013406;28;20041;-69
2022/07/13 04:44:01;;;;;;;7.20;4.32;;;18.70;99.90;;;;;;5012908;28;20408;-70
2022/07/13 04:46:27;;;;;;;8.32;4.32;;;18.60;99.90;;;;;;5011533;28;20037;-69
2022/07/13 04:48:53;;;;;;;6.68;4.50;;;18.60;99.90;;;;;;4993033;28;20176;-70
2022/07/13 04:51:19;;;;;;;7.30;4.60;;;18.60;99.90;;;;;;5000740;28;20116;-70
2022/07/13 04:53:45;;;;;;;7.15;4.50;;;18.60;99.90;;;;;;4995638;28;20475;-70
2022/07/13 04:56:11;;;;;;;6.13;4.03;;;18.60;99.90;;;;;;4993796;28;20065;-70
2022/07/13 04:58:37;;;;;;;7.03;4.22;;;18.70;99.90;;;;;;5006691;28;20092;-69
2022/07/13 05:01:06;;;;;;;6.45;4.43;;;18.60;99.90;;;;;;5006811;28;20054;-68
2022/07/13 05:03:32;;;;;;;6.80;3.95;;;18.70;99.90;;;;;;5012293;28;20128;-69
2022/07/13 05:05:58;;;;;;;8.38;4.43;;;18.70;99.90;;;;;;5024909;28;20029;-70
2022/07/13 05:08:25;;;;;;;6.03;4.28;;;18.70;99.90;;;;;;4988835;28;20535;-70
2022/07/13 05:10:50;;;;;;;5.93;3.92;;;18.80;99.90;;;;;;5022411;28;20033;-69
2022/07/13 05:13:16;;;;;;;5.32;3.80;;;18.80;99.90;;;;;;5018361;28;20034;-70
2022/07/13 05:15:42;;;;;;;6.95;3.97;;;18.80;99.90;;;;;;5009724;28;20037;-69
2022/07/13 05:18:08;;;;;;;6.13;4.20;;;18.80;99.90;;;;;;5004939;28;20036;-69
2022/07/13 05:20:33;;;;;;;5.95;4.50;;;18.80;99.90;;;;;;5024092;28;20038;-70
2022/07/13 05:22:59;;;;;;;8.20;4.65;;;18.90;99.90;;;;;;5001652;28;20120;-69
2022/07/13 05:25:25;;;;;;;5.88;4.22;;;18.90;99.90;;;;;;5013175;28;20029;-71
2022/07/13 05:27:50;;;;;;;7.35;4.55;;;18.90;99.90;;;;;;5017097;28;20099;-69
2022/07/13 05:30:16;;;;;;;5.68;3.90;;;18.90;99.90;;;;;;5010951;28;20064;-69
2022/07/13 05:32:42;;;;;;;6.55;4.20;;;18.90;99.90;;;;;;5020931;28;20025;-69
2022/07/13 05:35:08;;;;;;;5.60;4.13;;;18.90;99.90;;;;;;5019968;28;20525;-69
2022/07/13 05:37:33;;;;;;;6.40;3.90;;;19.00;99.90;;;;;;5030215;28;20484;-71
2022/07/13 05:39:59;;;;;;;7.15;4.18;;;19.00;99.90;;;;;;5008932;28;20041;-69
2022/07/13 05:42:26;;;;;;;7.03;4.32;;;19.10;99.90;;;;;;5010172;28;20038;-68
2022/07/13 05:44:52;;;;;;;7.22;4.20;;;19.00;99.90;;;;;;4993786;28;20045;-69
2022/07/13 05:47:18;;;;;;;6.88;4.35;;;19.10;99.90;;;;;;5011013;28;20085;-70
2022/07/13 05:49:44;;;;;;;5.55;4.07;;;19.10;99.90;;;;;;5010270;28;20091;-70
2022/07/13 05:52:10;;;;;;;7.38;4.13;;;19.10;99.90;;;;;;5010860;28;20053;-70
2022/07/13 05:54:35;;;;;;;6.28;4.32;;;19.10;99.90;;;;;;5012312;28;20132;-69
2022/07/13 05:57:02;;;;;;;7.38;4.63;;;19.20;99.90;;;;;;5010860;28;20022;-69
2022/07/13 05:59:28;;;;;;;7.55;4.55;;;19.20;99.90;;;;;;5010523;28;20042;-70
2022/07/13 06:01:53;;;;;;;6.35;4.70;;;19.20;99.90;;;;;;5005264;28;20053;-70
2022/07/13 06:04:19;;;;;;;7.25;5.10;;;19.20;99.90;;;;;;5009335;28;20036;-69
2022/07/13 06:06:46;;;;;;;6.47;4.30;;;19.30;99.90;;;;;;5005176;28;20072;-69
2022/07/13 06:09:11;;;;;;;7.28;4.65;;;19.30;99.90;;;;;;5011135;28;20045;-69
2022/07/13 06:11:37;;;;;;;7.05;4.85;;;19.30;99.90;;;;;;5009529;28;20030;-69
2022/07/13 06:14:04;;;;;;;9.23;5.10;;;19.40;99.90;;;;;;5001678;28;20038;-70
2022/07/13 06:16:29;;;;;;;6.18;5.30;;;19.40;99.90;;;;;;5018045;28;20113;-69
2022/07/13 06:18:55;;;;;;;8.45;5.00;;;19.50;99.90;;;;;;5004768;28;20108;-69
2022/07/13 06:21:20;;;;;;;7.88;5.22;;;19.50;99.90;;;;;;5014831;28;20072;-69
2022/07/13 06:23:46;;;;;;;7.05;5.13;;;19.60;99.90;;;;;;5009448;28;20028;-70
2022/07/13 06:26:12;;;;;;;7.25;5.07;;;19.60;99.90;;;;;;5009771;28;20113;-72
2022/07/13 06:28:37;;;;;;;10.18;5.45;;;19.60;99.90;;;;;;5000536;28;20026;-70
2022/07/13 06:31:03;;;;;;;7.10;5.35;;;19.70;99.90;;;;;;5008561;28;20123;-70
2022/07/13 06:33:29;;;;;;;8.15;5.60;;;19.80;99.90;;;;;;5010506;28;20034;-71
2022/07/13 06:35:54;;;;;;;6.57;4.38;;;19.90;99.90;;;;;;4999917;28;20049;-71
2022/07/13 06:38:20;;;;;;;9.55;5.53;;;19.90;99.90;;;;;;5010777;28;20739;-69
2022/07/13 06:40:49;;;;;;;8.32;4.40;;;20.00;99.90;;;;;;5008307;28;20038;-69
2022/07/13 06:43:15;;;;;;;10.55;5.45;;;20.10;99.90;;;;;;5007432;28;20037;-70
2022/07/13 06:45:41;;;;;;;6.65;4.15;;;20.10;99.90;;;;;;5007915;28;20033;-71
2022/07/13 06:48:07;;;;;;;8.75;4.93;;;20.20;99.90;;;;;;5009111;28;20079;-71
2022/07/13 06:50:33;;;;;;;10.60;4.60;;;20.20;99.90;;;;;;5006011;28;20128;-70
2022/07/13 06:52:59;;;;;;;11.43;5.18;;;20.30;99.90;;;;;;5009859;28;20072;-70
2022/07/13 06:55:24;;;;;;;8.60;4.78;;;20.40;99.90;;;;;;5009715;28;20034;-70
2022/07/13 06:57:51;;;;;;;8.20;4.50;;;20.40;99.90;;;;;;4989383;28;20033;-70
2022/07/13 07:00:17;;;;;;;9.75;4.75;;;20.50;99.90;;;;;;4994931;28;20061;-70
2022/07/13 07:02:43;;;;;;;7.72;4.40;;;20.60;99.90;;;;;;5005742;28;20072;-69
2022/07/13 07:05:09;;;;;;;6.85;4.30;;;20.70;99.90;;;;;;5007122;28;20038;-71
2022/07/13 07:07:40;;;;;;;9.10;4.18;;;20.80;99.90;;;;;;4996655;28;21620;-70
2022/07/13 07:10:07;;;;;;;6.35;3.83;;;20.90;99.90;;;;;;4992603;28;20040;-70
2022/07/13 07:12:33;;;;;;;7.45;3.72;;;21.00;99.90;;;;;;4988076;28;20030;-71
2022/07/13 07:14:59;;;;;;;6.93;4.00;;;21.10;99.90;;;;;;4989288;28;20712;-70
2022/07/13 07:17:24;;;;;;;7.22;3.67;;;21.10;99.90;;;;;;4996733;28;20037;-69
2022/07/13 07:19:51;;;;;;;7.63;3.50;;;21.20;99.90;;;;;;4994568;28;20049;-70
2022/07/13 07:22:17;;;;;;;8.35;3.72;;;21.30;99.90;;;;;;4993504;28;20559;-70
2022/07/13 07:24:42;;;;;;;5.80;3.33;;;21.30;99.90;;;;;;4998402;28;20018;-70
2022/07/13 07:27:10;;;;;;;5.97;3.30;;;21.40;99.90;;;;;;4980101;28;20052;-69
2022/07/13 07:29:36;;;;;;;5.53;3.55;;;21.40;99.90;;;;;;4995499;28;21457;-70
2022/07/13 07:32:02;;;;;;;7.15;3.90;;;21.50;99.90;;;;;;4998752;28;20103;-70
2022/07/13 07:34:28;;;;;;;6.88;3.60;;;21.60;99.90;;;;;;4995799;28;20510;-70
2022/07/13 07:36:55;;;;;;;5.57;3.58;;;21.60;99.90;;;;;;4990480;28;20045;-70
2022/07/13 07:39:21;;;;;;;6.72;3.30;;;21.80;99.90;;;;;;4995029;28;20125;-70
2022/07/13 07:41:47;;;;;;;6.88;3.38;;;21.80;99.90;;;;;;4995434;28;20448;-71
2022/07/13 07:44:13;;;;;;;6.60;3.33;;;22.00;99.90;;;;;;4998136;28;20171;-70
2022/07/13 07:46:38;;;;;;;5.85;3.17;;;22.10;99.90;;;;;;4997072;28;20449;-70
2022/07/13 07:49:05;;;;;;;5.70;3.05;;;22.20;99.90;;;;;;4995273;28;20029;-70
2022/07/13 07:51:30;;;;;;;7.43;3.00;;;22.30;99.90;;;;;;4998336;28;20113;-70
2022/07/13 07:53:56;;;;;;;10.23;3.17;;;22.40;99.90;;;;;;4997915;28;20124;-69
2022/07/13 07:56:23;;;;;;;6.75;2.60;;;22.40;99.90;;;;;;4996632;28;20040;-71
2022/07/13 07:58:49;;;;;;;6.10;2.70;;;22.50;99.90;;;;;;4995111;28;20076;-70
2022/07/13 08:01:15;;;;;;;6.40;2.42;;;22.70;99.90;;;;;;4992616;28;20033;-71
2022/07/13 08:03:40;;;;;;;4.72;2.42;;;22.80;99.90;;;;;;4998885;28;20108;-69
2022/07/13 08:06:06;;;;;;;4.22;2.50;;;23.00;99.90;;;;;;4993510;28;20034;-70
2022/07/13 08:08:32;;;;;;;5.57;2.53;;;23.10;99.90;;;;;;4998384;28;20032;-70
2022/07/13 08:10:58;;;;;;;5.15;2.30;;;23.20;99.90;;;;;;4991757;28;20042;-71
2022/07/13 08:13:24;;;;;;;5.78;2.47;;;23.20;99.90;;;;;;4995336;28;20104;-69
2022/07/13 08:15:50;;;;;;;6.90;2.38;;;23.30;99.90;;;;;;4993387;28;20033;-71
2022/07/13 08:18:15;;;;;;;6.13;2.25;;;23.40;99.90;;;;;;4988947;28;20033;-76
2022/07/13 08:20:41;;;;;;;3.45;1.73;;;23.50;99.90;;;;;;4994059;28;20050;-76
2022/07/13 08:23:51;;;;;;;4.60;2.20;;;23.60;99.90;;;;;;4977745;28;20037;-74
2022/07/13 08:25:53;;;;;;;3.90;2.20;;;23.60;99.90;;;;;;5006595;28;20034;-74
2022/07/13 08:28:19;;;;;;;3.83;2.20;;;23.70;99.90;;;;;;5006675;28;21769;-74
2022/07/13 08:30:45;;;;;;;3.60;1.95;;;23.80;99.90;;;;;;4992597;28;20045;-73
2022/07/13 08:33:11;;;;;;;5.82;2.10;;;23.90;99.90;;;;;;5005920;28;20026;-73
2022/07/13 08:38:35;;;;;;;4.18;2.17;;;24.10;99.90;;;;;;5004877;28;20037;-70
2022/07/13 08:41:01;;;;;;;5.55;2.00;;;24.30;99.30;;;;;;5006474;28;20064;-68
2022/07/13 08:43:27;;;;;;;5.53;2.17;;;24.50;98.80;;;;;;4998274;28;20124;-70
2022/07/13 08:45:54;;;;;;;6.05;2.00;;;24.60;97.60;;;;;;5007485;28;20230;-76
2022/07/13 08:48:31;;;;;;;5.93;2.10;;;24.70;96.90;;;;;;5005942;28;20037;-70
2022/07/13 08:50:57;;;;;;;4.22;1.80;;;24.80;97.80;;;;;;4991605;28;20041;-71
2022/07/13 08:53:24;;;;;;;3.47;1.60;;;25.00;97.10;;;;;;4993861;28;20396;-71
2022/07/13 08:55:50;;;;;;;5.65;1.75;;;25.00;95.90;;;;;;5011195;28;20022;-72
2022/07/13 08:58:17;;;;;;;4.05;2.13;;;25.10;92.70;;;;;;5011073;28;20092;-71
2022/07/13 09:00:43;;;;;;;4.35;1.73;;;25.10;93.60;;;;;;4993780;28;20084;-69
2022/07/13 09:03:09;;;;;;;3.97;1.75;;;25.20;92.80;;;;;;4993744;28;20101;-72
2022/07/13 09:05:35;;;;;;;4.03;1.80;;;25.30;93.00;;;;;;5010859;28;20030;-69
2022/07/13 09:08:03;;;;;;;3.80;1.60;;;25.40;92.60;;;;;;4993122;28;20576;-70
2022/07/13 09:10:29;;;;;;;4.28;1.90;;;25.50;92.50;;;;;;5009115;28;20515;-68
2022/07/13 09:12:55;;;;;;;3.42;1.45;;;25.50;92.50;;;;;;5009651;28;20033;-68
2022/07/13 09:15:21;;;;;;;5.90;1.90;;;25.60;91.70;;;;;;4993163;28;20030;-68
2022/07/13 09:17:47;;;;;;;5.60;2.08;;;25.60;93.20;;;;;;5010074;28;20113;-68
2022/07/13 09:20:13;;;;;;;4.90;1.95;;;25.60;93.80;;;;;;5009359;28;20065;-68
2022/07/13 09:22:58;;;;;;;4.05;1.50;;;25.80;92.20;;;;;;5011791;28;20073;-70
2022/07/13 09:25:39;;;;;;;3.10;1.75;;;25.90;92.30;;;;;;5005926;28;20049;-73
2022/07/13 09:28:09;;;;;;;4.35;1.70;;;26.00;91.90;;;;;;5009316;28;20428;-75
2022/07/13 09:30:40;;;;;;;4.32;1.88;;;25.90;92.30;;;;;;5010803;28;20029;-74
2022/07/13 09:33:06;;;;;;;4.80;1.55;;;25.90;92.30;;;;;;5009794;28;20025;-74
2022/07/13 09:35:49;;;;;;;4.25;1.90;;;25.80;91.00;;;;;;5010614;28;20050;-74
2022/07/13 09:38:31;;;;;;;3.22;1.50;;;25.90;92.10;;;;;;4993428;28;20041;-74
2022/07/13 09:41:19;;;;;;;3.30;1.52;;;25.90;92.40;;;;;;5011308;28;20505;-75
2022/07/13 09:47:00;;;;;;;4.38;1.70;;;26.00;90.50;;;;;;5010772;28;20045;-73
2022/07/13 09:49:39;;;;;;;5.80;1.70;;;26.10;90.00;;;;;;5010472;28;20120;-76
2022/07/13 09:52:07;;;;;;;4.68;2.05;;;26.10;91.30;;;;;;4992700;28;20033;-74
2022/07/13 09:54:39;;;;;;;3.00;1.70;;;26.10;91.30;;;;;;5010166;28;20177;-69
2022/07/13 09:57:08;;;;;;;4.38;1.90;;;26.20;92.10;;;;;;5010403;28;20485;-69
2022/07/13 09:59:35;;;;;;;3.17;1.60;;;26.30;90.00;;;;;;5010248;28;20049;-75
2022/07/13 10:02:03;;;;;;;3.67;1.60;;;26.40;90.80;;;;;;5009368;28;20037;-75
2022/07/13 10:04:32;;;;;;;3.70;1.55;;;26.50;90.60;;;;;;5010271;28;20065;-72
2022/07/13 10:06:59;;;;;;;4.60;1.70;;;26.50;90.70;;;;;;4992708;28;20476;-72
2022/07/13 10:09:28;;;;;;;4.47;1.85;;;26.50;90.80;;;;;;5010443;28;20083;-73
2022/07/13 10:11:54;;;;;;;3.47;1.70;;;26.50;91.80;;;;;;5010502;28;20045;-75
2022/07/13 10:14:21;;;;;;;4.53;1.58;;;26.60;91.00;;;;;;5010233;28;20648;-72
2022/07/13 10:16:47;;;;;;;3.75;1.42;;;26.60;88.60;;;;;;5009954;28;20405;-73
2022/07/13 10:19:14;;;;;;;4.68;1.70;;;26.60;90.10;;;;;;5007554;28;20026;-72
2022/07/13 10:21:51;;;;;;;4.78;1.65;;;26.50;89.50;;;;;;4998463;28;20444;-75
2022/07/13 10:24:18;;;;;;;4.65;1.83;;;26.70;90.00;;;;;;5011448;28;20532;-73
2022/07/13 10:26:47;;;;;;;4.25;1.80;;;26.90;88.90;;;;;;4988666;28;20523;-73
2022/07/13 10:29:15;;;;;;;4.03;1.60;;;27.10;85.50;;;;;;4998946;28;20096;-69
2022/07/13 10:31:42;;;;;;;4.43;1.70;;;27.30;85.80;;;;;;4985741;28;20117;-72
2022/07/13 10:34:09;;;;;;;4.25;1.90;;;27.50;85.10;;;;;;5008428;28;20125;-74
2022/07/13 10:36:50;;;;;;;3.03;1.58;;;27.60;83.60;;;;;;5028355;28;20079;-74
2022/07/13 10:39:16;;;;;;;3.60;1.65;;;27.90;82.30;;;;;;5017186;28;20026;-73
2022/07/13 10:42:01;;;;;;;4.43;1.70;;;27.80;82.80;;;;;;5029585;28;20025;-74
2022/07/13 10:44:37;;;;;;;4.68;1.88;;;27.90;83.70;;;;;;5029259;28;20026;-75
2022/07/13 10:47:14;;;;;;;5.85;1.98;;;27.80;83.80;;;;;;4992905;28;20049;-74
2022/07/13 10:49:47;;;;;;;5.00;1.55;;;27.60;83.20;;;;;;5008766;28;20038;-73
2022/07/13 10:52:22;;;;;;;4.60;1.58;;;27.50;83.50;;;;;;5023116;28;20543;-73
2022/07/13 10:55:03;;;;;;;2.70;1.40;;;27.50;82.10;;;;;;5027727;28;20029;-73
2022/07/13 10:57:29;;;;;;;3.05;1.80;;;27.70;85.40;;;;;;5004827;28;20061;-73
2022/07/13 11:00:00;;;;;;;3.63;1.65;;;27.90;85.50;;;;;;4990622;28;20452;-75
2022/07/13 11:02:48;;;;;;;2.80;1.45;;;28.20;80.40;;;;;;4994292;28;20075;-75
2022/07/13 11:05:26;;;;;;;3.75;1.55;;;28.40;77.40;;;;;;5009105;28;20069;-74
2022/07/13 11:07:52;;;;;;;2.97;1.30;;;28.30;79.00;;;;;;5006707;28;20042;-74
2022/07/13 11:10:27;;;;;;;3.40;1.67;;;28.20;76.90;;;;;;5008955;28;20424;-74
2022/07/13 11:13:12;;;;;;;3.35;1.40;;;28.10;78.30;;;;;;5008724;28;20022;-75
2022/07/13 11:15:50;;;;;;;3.95;1.40;;;28.00;73.20;;;;;;4990672;28;20476;-76
2022/07/13 11:18:24;;;;;;;2.42;1.10;;;27.90;74.80;;;;;;4991434;28;20045;-73
2022/07/13 11:21:23;;;;;;;3.53;1.50;;;27.80;75.00;;;;;;5008907;28;20069;-75
2022/07/13 11:26:59;;;;;;;2.53;1.40;;;28.00;75.40;;;;;;5000109;28;20072;-75
2022/07/13 11:29:53;;;;;;;4.38;1.30;;;28.10;76.50;;;;;;5008541;28;20083;-75
2022/07/13 11:32:22;;;;;;;3.55;1.20;;;28.10;74.90;;;;;;5008830;28;20037;-76
2022/07/13 11:34:48;;;;;;;4.28;1.52;;;28.30;75.60;;;;;;5009172;28;20061;-75
2022/07/13 11:37:14;;;;;;;4.10;1.52;;;28.30;74.20;;;;;;5007252;28;20038;-74
2022/07/13 11:39:40;;;;;;;5.75;1.50;;;28.30;75.50;;;;;;5008708;28;20037;-74
2022/07/13 11:42:07;;;;;;;4.28;1.60;;;28.10;70.70;;;;;;5008763;28;20034;-75
2022/07/13 11:44:34;;;;;;;11.60;2.63;;;28.00;74.70;;;;;;5006714;28;20173;-75
2022/07/13 11:47:08;;;;;;;3.95;1.60;;;28.00;77.70;;;;;;5005101;28;20049;-74
2022/07/13 11:49:43;;;;;;;3.72;1.60;;;28.00;79.50;;;;;;5008250;28;20037;-73
2022/07/13 11:52:27;;;;;;;4.18;1.70;;;28.10;79.00;;;;;;4992441;28;20088;-73
2022/07/13 11:55:03;;;;;;;5.43;1.90;;;28.10;78.20;;;;;;5005558;28;20041;-73
2022/07/13 11:57:30;;;;;;;2.75;1.65;;;28.20;74.90;;;;;;4990840;28;20036;-74
2022/07/13 12:00:06;;;;;;;4.32;1.52;;;28.30;72.20;;;;;;5007125;28;20084;-75
2022/07/13 12:02:32;;;;;;;3.83;1.90;;;28.50;78.30;;;;;;5008141;28;20377;-74
2022/07/13 12:04:59;;;;;;;4.80;1.50;;;28.80;74.40;;;;;;5008839;28;20040;-73
2022/07/13 12:07:25;;;;;;;5.03;1.80;;;28.90;75.00;;;;;;5003491;28;20037;-73
2022/07/13 12:09:53;;;;;;;3.97;1.40;;;28.90;68.40;;;;;;5008583;28;20034;-74
2022/07/13 12:12:21;;;;;;;4.50;1.70;;;28.70;72.00;;;;;;5008524;28;20286;-72
2022/07/13 12:14:48;;;;;;;5.35;1.52;;;28.50;69.40;;;;;;5008367;28;20068;-71
2022/07/13 12:17:14;;;;;;;6.30;1.48;;;28.40;69.50;;;;;;5007359;28;20531;-74
2022/07/13 12:19:40;;;;;;;2.70;1.27;;;28.50;74.30;;;;;;5006067;28;20128;-73
2022/07/13 12:22:07;;;;;;;3.00;1.35;;;28.60;69.40;;;;;;5006498;28;20061;-72
2022/07/13 12:24:33;;;;;;;3.35;1.35;;;28.80;69.90;;;;;;5007441;28;20026;-72
2022/07/13 12:26:59;;;;;;;4.10;1.42;;;29.10;70.60;;;;;;5010874;28;20069;-73
2022/07/13 12:29:33;;;;;;;3.38;1.58;;;29.50;62.70;;;;;;5012555;28;20041;-73
2022/07/13 12:32:03;;;;;;;2.30;1.13;;;29.70;57.40;;;;;;5009956;28;20049;-73
2022/07/13 12:34:29;;;;;;;2.40;1.20;;;29.70;55.50;;;;;;5010483;28;20037;-72
2022/07/13 12:36:55;;;;;;;4.03;1.40;;;29.80;56.40;;;;;;5008101;28;20534;-77
2022/07/13 12:39:34;;;;;;;4.00;1.25;;;29.80;54.50;;;;;;4992189;28;20038;-78
2022/07/13 12:42:01;;;;;;;2.83;1.60;;;29.60;55.30;;;;;;5019143;28;20117;-75
2022/07/13 12:44:29;;;;;;;4.40;1.30;;;29.40;59.20;;;;;;5011640;28;20033;-75
2022/07/13 12:46:58;;;;;;;4.93;1.20;;;29.20;58.20;;;;;;5008622;28;20037;-75
2022/07/13 12:49:35;;;;;;;3.45;1.15;;;29.20;56.00;;;;;;5010274;28;20097;-75
2022/07/13 12:52:05;;;;;;;3.45;1.30;;;29.20;56.40;;;;;;5009913;28;20129;-75
2022/07/13 12:54:51;;;;;;;2.88;0.98;;;29.10;57.20;;;;;;5026767;28;20033;-75
2022/07/13 12:57:19;;;;;;;5.18;1.52;;;28.90;60.20;;;;;;5003524;28;20032;-75